sensor_id;sensor_type;location;lat;lon;timestamp;pressure;altitude;pressure_sealevel;temperature;humidity
70323;BME280;57735;56.264;43.898;2023-02-19T00:01:56;99925.50;;;-9.14;67.75
70323;BME280;57735;56.264;43.898;2023-02-19T00:04:27;99926.38;;;-9.14;67.23
70323;BME280;57735;56.264;43.898;2023-02-19T00:06:58;99920.34;;;-9.14;67.31
70323;BME280;57735;56.264;43.898;2023-02-19T00:09:29;99924.50;;;-9.09;67.19
70323;BME280;57735;56.264;43.898;2023-02-19T00:12:00;99922.75;;;-9.07;67.24
70323;BME280;57735;56.264;43.898;2023-02-19T00:14:33;99918.53;;;-9.11;66.91
70323;BME280;57735;56.264;43.898;2023-02-19T00:17:03;99921.03;;;-9.08;66.99
70323;BME280;57735;56.264;43.898;2023-02-19T00:19:34;99917.38;;;-9.01;67.03
70323;BME280;57735;56.264;43.898;2023-02-19T00:22:05;99924.25;;;-9.00;66.74
70323;BME280;57735;56.264;43.898;2023-02-19T00:24:36;99916.47;;;-8.98;66.83
70323;BME280;57735;56.264;43.898;2023-02-19T00:27:07;99914.84;;;-9.02;66.26
70323;BME280;57735;56.264;43.898;2023-02-19T00:29:37;99909.84;;;-9.07;66.24
70323;BME280;57735;56.264;43.898;2023-02-19T00:32:08;99915.06;;;-9.10;66.41
70323;BME280;57735;56.264;43.898;2023-02-19T00:34:39;99912.31;;;-9.04;66.82
70323;BME280;57735;56.264;43.898;2023-02-19T00:37:12;99896.16;;;-9.10;66.35
70323;BME280;57735;56.264;43.898;2023-02-19T00:39:43;99906.56;;;-9.13;66.40
70323;BME280;57735;56.264;43.898;2023-02-19T00:42:16;99895.41;;;-9.14;66.44
70323;BME280;57735;56.264;43.898;2023-02-19T00:44:46;99895.47;;;-9.17;66.75
70323;BME280;57735;56.264;43.898;2023-02-19T00:47:18;99892.88;;;-9.17;66.57
70323;BME280;57735;56.264;43.898;2023-02-19T00:49:49;99891.16;;;-9.17;66.40
70323;BME280;57735;56.264;43.898;2023-02-19T00:52:19;99875.47;;;-9.09;67.25
70323;BME280;57735;56.264;43.898;2023-02-19T00:54:50;99873.72;;;-9.08;66.81
70323;BME280;57735;56.264;43.898;2023-02-19T00:57:21;99871.75;;;-9.00;66.69
70323;BME280;57735;56.264;43.898;2023-02-19T00:59:54;99874.59;;;-9.08;66.27
70323;BME280;57735;56.264;43.898;2023-02-19T01:02:25;99871.28;;;-9.13;66.65
70323;BME280;57735;56.264;43.898;2023-02-19T01:04:56;99868.84;;;-9.19;66.14
70323;BME280;57735;56.264;43.898;2023-02-19T01:07:27;99861.25;;;-9.24;66.53
70323;BME280;57735;56.264;43.898;2023-02-19T01:10:00;99859.72;;;-9.31;66.31
70323;BME280;57735;56.264;43.898;2023-02-19T01:12:31;99854.06;;;-9.43;66.42
70323;BME280;57735;56.264;43.898;2023-02-19T01:15:02;99857.63;;;-9.47;66.95
70323;BME280;57735;56.264;43.898;2023-02-19T01:17:35;99858.50;;;-9.48;66.79
70323;BME280;57735;56.264;43.898;2023-02-19T01:20:06;99849.25;;;-9.56;66.74
70323;BME280;57735;56.264;43.898;2023-02-19T01:22:37;99856.22;;;-9.59;66.81
70323;BME280;57735;56.264;43.898;2023-02-19T01:25:08;99854.53;;;-9.60;66.76
70323;BME280;57735;56.264;43.898;2023-02-19T01:27:39;99853.59;;;-9.58;66.96
70323;BME280;57735;56.264;43.898;2023-02-19T01:30:10;99852.72;;;-9.57;66.61
70323;BME280;57735;56.264;43.898;2023-02-19T01:32:41;99852.84;;;-9.61;66.73
70323;BME280;57735;56.264;43.898;2023-02-19T01:35:12;99837.38;;;-9.61;66.65
70323;BME280;57735;56.264;43.898;2023-02-19T01:37:42;99839.97;;;-9.63;67.21
70323;BME280;57735;56.264;43.898;2023-02-19T01:40:13;99836.44;;;-9.59;66.84
70323;BME280;57735;56.264;43.898;2023-02-19T01:42:44;99837.25;;;-9.57;66.65
70323;BME280;57735;56.264;43.898;2023-02-19T01:45:33;99837.41;;;-9.63;66.66
70323;BME280;57735;56.264;43.898;2023-02-19T01:48:36;99840.06;;;-9.66;66.95
70323;BME280;57735;56.264;43.898;2023-02-19T01:51:13;99831.34;;;-9.62;67.09
70323;BME280;57735;56.264;43.898;2023-02-19T01:53:52;99843.25;;;-9.56;66.96
70323;BME280;57735;56.264;43.898;2023-02-19T01:56:27;99831.19;;;-9.56;66.87
70323;BME280;57735;56.264;43.898;2023-02-19T01:59:01;99829.50;;;-9.57;66.92
70323;BME280;57735;56.264;43.898;2023-02-19T02:01:32;99838.03;;;-9.55;66.95
70323;BME280;57735;56.264;43.898;2023-02-19T02:04:04;99829.34;;;-9.52;66.70
70323;BME280;57735;56.264;43.898;2023-02-19T02:06:49;99832.06;;;-9.55;66.26
70323;BME280;57735;56.264;43.898;2023-02-19T02:09:26;99830.47;;;-9.61;65.97
70323;BME280;57735;56.264;43.898;2023-02-19T02:12:16;99828.84;;;-9.65;66.03
70323;BME280;57735;56.264;43.898;2023-02-19T02:14:47;99831.44;;;-9.65;66.16
70323;BME280;57735;56.264;43.898;2023-02-19T02:17:36;99830.59;;;-9.65;66.07
70323;BME280;57735;56.264;43.898;2023-02-19T02:31:32;99838.25;;;-9.95;66.02
70323;BME280;57735;56.264;43.898;2023-02-19T02:34:18;99829.75;;;-9.98;65.79
70323;BME280;57735;56.264;43.898;2023-02-19T02:36:53;99836.53;;;-9.94;66.29
70323;BME280;57735;56.264;43.898;2023-02-19T02:39:27;99831.25;;;-9.90;65.84
70323;BME280;57735;56.264;43.898;2023-02-19T02:41:59;99832.19;;;-9.92;65.80
70323;BME280;57735;56.264;43.898;2023-02-19T02:44:51;99832.09;;;-9.89;65.93
70323;BME280;57735;56.264;43.898;2023-02-19T02:47:46;99838.91;;;-9.88;65.50
70323;BME280;57735;56.264;43.898;2023-02-19T02:50:22;99837.13;;;-9.84;65.52
70323;BME280;57735;56.264;43.898;2023-02-19T02:52:58;99832.00;;;-9.86;65.56
70323;BME280;57735;56.264;43.898;2023-02-19T02:55:53;99825.97;;;-9.85;65.27
70323;BME280;57735;56.264;43.898;2023-02-19T02:58:26;99839.84;;;-9.89;65.06
70323;BME280;57735;56.264;43.898;2023-02-19T03:01:08;99833.84;;;-9.90;64.96
70323;BME280;57735;56.264;43.898;2023-02-19T03:04:03;99823.56;;;-9.91;65.25
70323;BME280;57735;56.264;43.898;2023-02-19T03:06:36;99820.84;;;-9.87;65.17
70323;BME280;57735;56.264;43.898;2023-02-19T03:09:14;99812.25;;;-9.87;65.07
70323;BME280;57735;56.264;43.898;2023-02-19T03:11:49;99822.56;;;-9.87;65.31
70323;BME280;57735;56.264;43.898;2023-02-19T03:14:45;99820.19;;;-9.93;64.97
70323;BME280;57735;56.264;43.898;2023-02-19T03:20:32;99812.47;;;-9.95;64.82
70323;BME280;57735;56.264;43.898;2023-02-19T03:23:05;99809.88;;;-9.93;64.83
70323;BME280;57735;56.264;43.898;2023-02-19T03:25:38;99816.81;;;-9.97;64.56
70323;BME280;57735;56.264;43.898;2023-02-19T03:28:29;99815.25;;;-10.02;64.87
70323;BME280;57735;56.264;43.898;2023-02-19T03:31:22;99808.34;;;-10.02;64.59
70323;BME280;57735;56.264;43.898;2023-02-19T03:33:57;99813.72;;;-10.09;64.56
70323;BME280;57735;56.264;43.898;2023-02-19T03:36:38;99807.91;;;-10.17;64.52
70323;BME280;57735;56.264;43.898;2023-02-19T03:39:12;99809.00;;;-10.25;64.84
70323;BME280;57735;56.264;43.898;2023-02-19T03:47:18;99803.28;;;-10.37;65.32
70323;BME280;57735;56.264;43.898;2023-02-19T03:50:02;99804.25;;;-10.41;64.88
70323;BME280;57735;56.264;43.898;2023-02-19T03:52:44;99808.59;;;-10.43;65.23
70323;BME280;57735;56.264;43.898;2023-02-19T03:55:42;99804.72;;;-10.61;65.01
70323;BME280;57735;56.264;43.898;2023-02-19T03:58:25;99796.31;;;-10.69;65.16
70323;BME280;57735;56.264;43.898;2023-02-19T04:01:04;99803.19;;;-10.70;65.20
70323;BME280;57735;56.264;43.898;2023-02-19T04:03:43;99800.75;;;-10.74;65.26
70323;BME280;57735;56.264;43.898;2023-02-19T04:06:26;99797.53;;;-10.84;65.27
70323;BME280;57735;56.264;43.898;2023-02-19T04:09:00;99800.13;;;-10.85;65.81
70323;BME280;57735;56.264;43.898;2023-02-19T04:11:32;99797.56;;;-10.85;65.90
70323;BME280;57735;56.264;43.898;2023-02-19T04:14:09;99798.44;;;-10.86;65.64
70323;BME280;57735;56.264;43.898;2023-02-19T04:16:48;99792.47;;;-10.88;65.61
70323;BME280;57735;56.264;43.898;2023-02-19T04:19:22;99795.06;;;-10.88;65.68
70323;BME280;57735;56.264;43.898;2023-02-19T04:21:55;99793.41;;;-10.89;65.75
70323;BME280;57735;56.264;43.898;2023-02-19T04:24:34;99791.59;;;-10.87;65.91
70323;BME280;57735;56.264;43.898;2023-02-19T04:27:07;99803.53;;;-10.83;65.74
70323;BME280;57735;56.264;43.898;2023-02-19T04:29:39;99797.47;;;-10.81;65.88
70323;BME280;57735;56.264;43.898;2023-02-19T04:32:11;99787.91;;;-10.76;65.95
70323;BME280;57735;56.264;43.898;2023-02-19T04:34:42;99789.47;;;-10.70;65.65
70323;BME280;57735;56.264;43.898;2023-02-19T04:37:13;99793.91;;;-10.75;65.42
70323;BME280;57735;56.264;43.898;2023-02-19T04:39:44;99789.66;;;-10.76;65.69
70323;BME280;57735;56.264;43.898;2023-02-19T04:42:14;99782.75;;;-10.74;65.62
70323;BME280;57735;56.264;43.898;2023-02-19T04:44:48;99781.84;;;-10.73;65.53
70323;BME280;57735;56.264;43.898;2023-02-19T04:47:18;99778.47;;;-10.75;65.54
70323;BME280;57735;56.264;43.898;2023-02-19T04:49:49;99786.94;;;-10.72;65.52
70323;BME280;57735;56.264;43.898;2023-02-19T04:52:20;99779.19;;;-10.70;65.50
70323;BME280;57735;56.264;43.898;2023-02-19T04:54:51;99784.28;;;-10.67;65.27
70323;BME280;57735;56.264;43.898;2023-02-19T04:57:21;99782.56;;;-10.68;64.94
70323;BME280;57735;56.264;43.898;2023-02-19T04:59:54;99776.66;;;-10.72;64.85
70323;BME280;57735;56.264;43.898;2023-02-19T05:02:25;99781.84;;;-10.73;64.90
70323;BME280;57735;56.264;43.898;2023-02-19T05:04:56;99781.03;;;-10.75;64.79
70323;BME280;57735;56.264;43.898;2023-02-19T05:07:27;99774.13;;;-10.73;64.78
70323;BME280;57735;56.264;43.898;2023-02-19T05:09:58;99767.19;;;-10.71;64.75
70323;BME280;57735;56.264;43.898;2023-02-19T05:12:29;99769.84;;;-10.73;64.68
70323;BME280;57735;56.264;43.898;2023-02-19T05:15:00;99774.03;;;-10.70;64.51
70323;BME280;57735;56.264;43.898;2023-02-19T05:17:34;99774.88;;;-10.70;64.66
70323;BME280;57735;56.264;43.898;2023-02-19T05:20:08;99780.88;;;-10.69;64.73
70323;BME280;57735;56.264;43.898;2023-02-19T05:22:39;99770.44;;;-10.63;64.73
70323;BME280;57735;56.264;43.898;2023-02-19T05:25:10;99778.91;;;-10.58;64.50
70323;BME280;57735;56.264;43.898;2023-02-19T05:27:43;99777.28;;;-10.62;64.30
70323;BME280;57735;56.264;43.898;2023-02-19T05:30:13;99783.22;;;-10.59;64.59
70323;BME280;57735;56.264;43.898;2023-02-19T05:32:44;99778.81;;;-10.55;64.27
70323;BME280;57735;56.264;43.898;2023-02-19T05:35:15;99775.28;;;-10.51;64.26
70323;BME280;57735;56.264;43.898;2023-02-19T05:37:46;99775.22;;;-10.48;64.15
70323;BME280;57735;56.264;43.898;2023-02-19T05:40:16;99775.19;;;-10.46;64.16
70323;BME280;57735;56.264;43.898;2023-02-19T05:42:47;99773.31;;;-10.40;64.26
70323;BME280;57735;56.264;43.898;2023-02-19T05:45:18;99779.09;;;-10.32;64.29
70323;BME280;57735;56.264;43.898;2023-02-19T05:47:49;99774.00;;;-10.33;63.72
70323;BME280;57735;56.264;43.898;2023-02-19T05:50:20;99768.94;;;-10.38;63.71
70323;BME280;57735;56.264;43.898;2023-02-19T05:52:51;99767.31;;;-10.40;63.87
70323;BME280;57735;56.264;43.898;2023-02-19T05:55:22;99782.47;;;-10.28;63.77
70323;BME280;57735;56.264;43.898;2023-02-19T05:57:53;99767.75;;;-10.23;63.52
70323;BME280;57735;56.264;43.898;2023-02-19T06:00:24;99760.75;;;-10.19;63.43
70323;BME280;57735;56.264;43.898;2023-02-19T06:02:59;99762.31;;;-10.14;63.46
70323;BME280;57735;56.264;43.898;2023-02-19T06:05:30;99761.16;;;-10.04;63.32
70323;BME280;57735;56.264;43.898;2023-02-19T06:08:01;99764.84;;;-10.12;62.91
70323;BME280;57735;56.264;43.898;2023-02-19T06:10:34;99770.88;;;-10.13;63.48
70323;BME280;57735;56.264;43.898;2023-02-19T06:13:07;99762.19;;;-10.09;63.57
70323;BME280;57735;56.264;43.898;2023-02-19T06:15:38;99760.69;;;-9.87;63.81
70323;BME280;57735;56.264;43.898;2023-02-19T06:18:09;99757.63;;;-9.69;63.49
70323;BME280;57735;56.264;43.898;2023-02-19T06:20:40;99761.66;;;-9.59;63.00
70323;BME280;57735;56.264;43.898;2023-02-19T06:23:15;99748.56;;;-9.53;63.07
70323;BME280;57735;56.264;43.898;2023-02-19T06:25:46;99755.19;;;-9.44;62.60
70323;BME280;57735;56.264;43.898;2023-02-19T06:28:16;99749.72;;;-9.33;62.69
70323;BME280;57735;56.264;43.898;2023-02-19T06:30:47;99745.88;;;-9.20;62.41
70323;BME280;57735;56.264;43.898;2023-02-19T06:33:18;99740.72;;;-9.20;62.20
70323;BME280;57735;56.264;43.898;2023-02-19T06:35:49;99750.19;;;-9.21;61.94
70323;BME280;57735;56.264;43.898;2023-02-19T06:38:20;99738.34;;;-9.26;61.95
70323;BME280;57735;56.264;43.898;2023-02-19T06:40:51;99731.47;;;-9.27;62.03
70323;BME280;57735;56.264;43.898;2023-02-19T06:43:22;99732.47;;;-9.31;61.58
70323;BME280;57735;56.264;43.898;2023-02-19T06:45:53;99730.69;;;-9.29;61.75
70323;BME280;57735;56.264;43.898;2023-02-19T06:48:25;99729.75;;;-9.27;61.62
70323;BME280;57735;56.264;43.898;2023-02-19T06:50:57;99717.25;;;-9.12;61.89
70323;BME280;57735;56.264;43.898;2023-02-19T06:53:28;99719.72;;;-9.08;61.23
70323;BME280;57735;56.264;43.898;2023-02-19T06:56:04;99732.41;;;-9.02;61.27
70323;BME280;57735;56.264;43.898;2023-02-19T06:58:37;99738.72;;;-8.84;61.12
70323;BME280;57735;56.264;43.898;2023-02-19T07:01:10;99742.72;;;-8.74;61.08
70323;BME280;57735;56.264;43.898;2023-02-19T07:03:41;99742.69;;;-8.72;60.69
70323;BME280;57735;56.264;43.898;2023-02-19T07:06:14;99734.22;;;-8.77;60.53
70323;BME280;57735;56.264;43.898;2023-02-19T07:08:48;99733.56;;;-8.84;60.63
70323;BME280;57735;56.264;43.898;2023-02-19T07:11:19;99729.28;;;-8.85;60.76
70323;BME280;57735;56.264;43.898;2023-02-19T07:13:54;99741.00;;;-8.73;60.80
70323;BME280;57735;56.264;43.898;2023-02-19T07:16:28;99730.75;;;-8.76;60.48
70323;BME280;57735;56.264;43.898;2023-02-19T07:18:59;99722.47;;;-8.88;60.74
70323;BME280;57735;56.264;43.898;2023-02-19T07:21:30;99723.28;;;-8.86;60.83
70323;BME280;57735;56.264;43.898;2023-02-19T07:24:01;99731.88;;;-8.85;60.80
70323;BME280;57735;56.264;43.898;2023-02-19T07:26:32;99726.84;;;-8.88;60.94
70323;BME280;57735;56.264;43.898;2023-02-19T07:29:03;99721.59;;;-8.87;61.09
70323;BME280;57735;56.264;43.898;2023-02-19T07:31:33;99725.88;;;-8.86;60.90
70323;BME280;57735;56.264;43.898;2023-02-19T07:34:06;99733.66;;;-8.87;60.82
70323;BME280;57735;56.264;43.898;2023-02-19T07:36:36;99723.25;;;-8.84;60.82
70323;BME280;57735;56.264;43.898;2023-02-19T07:39:10;99726.63;;;-8.82;61.13
70323;BME280;57735;56.264;43.898;2023-02-19T07:41:45;99730.63;;;-8.72;61.41
70323;BME280;57735;56.264;43.898;2023-02-19T07:44:18;99727.63;;;-8.60;61.10
70323;BME280;57735;56.264;43.898;2023-02-19T07:46:49;99732.88;;;-8.63;61.02
70323;BME280;57735;56.264;43.898;2023-02-19T07:49:20;99724.66;;;-8.49;60.85
70323;BME280;57735;56.264;43.898;2023-02-19T07:51:51;99724.47;;;-8.43;60.55
70323;BME280;57735;56.264;43.898;2023-02-19T07:54:21;99725.03;;;-8.35;60.55
70323;BME280;57735;56.264;43.898;2023-02-19T07:56:54;99726.59;;;-8.31;60.55
70323;BME280;57735;56.264;43.898;2023-02-19T07:59:30;99718.41;;;-8.19;60.65
70323;BME280;57735;56.264;43.898;2023-02-19T08:02:01;99712.84;;;-8.06;60.56
70323;BME280;57735;56.264;43.898;2023-02-19T08:04:50;99726.72;;;-8.09;60.24
70323;BME280;57735;56.264;43.898;2023-02-19T08:07:21;99704.50;;;-8.15;60.42
70323;BME280;57735;56.264;43.898;2023-02-19T08:09:52;99706.88;;;-8.08;60.60
70323;BME280;57735;56.264;43.898;2023-02-19T08:12:43;99704.91;;;-8.02;60.51
70323;BME280;57735;56.264;43.898;2023-02-19T08:15:32;99704.31;;;-7.85;60.83
70323;BME280;57735;56.264;43.898;2023-02-19T08:18:02;99700.41;;;-7.72;60.15
70323;BME280;57735;56.264;43.898;2023-02-19T08:20:33;99695.66;;;-7.61;60.36
70323;BME280;57735;56.264;43.898;2023-02-19T08:23:04;99692.50;;;-7.46;60.38
70323;BME280;57735;56.264;43.898;2023-02-19T08:25:35;99696.66;;;-7.42;59.91
70323;BME280;57735;56.264;43.898;2023-02-19T08:28:08;99692.38;;;-7.43;59.73
70323;BME280;57735;56.264;43.898;2023-02-19T08:30:41;99689.78;;;-7.43;59.98
70323;BME280;57735;56.264;43.898;2023-02-19T08:33:18;99690.22;;;-7.31;59.97
70323;BME280;57735;56.264;43.898;2023-02-19T08:35:49;99688.47;;;-7.31;59.73
70323;BME280;57735;56.264;43.898;2023-02-19T08:38:20;99690.22;;;-7.31;59.83
70323;BME280;57735;56.264;43.898;2023-02-19T08:40:53;99685.28;;;-7.37;59.54
70323;BME280;57735;56.264;43.898;2023-02-19T08:43:24;99680.16;;;-7.39;59.97
70323;BME280;57735;56.264;43.898;2023-02-19T08:45:55;99673.38;;;-7.42;60.14
70323;BME280;57735;56.264;43.898;2023-02-19T08:48:26;99680.94;;;-7.37;59.87
70323;BME280;57735;56.264;43.898;2023-02-19T08:50:59;99678.34;;;-7.37;60.10
70323;BME280;57735;56.264;43.898;2023-02-19T08:53:31;99682.34;;;-7.28;60.27
70323;BME280;57735;56.264;43.898;2023-02-19T08:56:14;99679.75;;;-7.28;60.15
70323;BME280;57735;56.264;43.898;2023-02-19T08:58:48;99679.16;;;-7.13;60.25
70323;BME280;57735;56.264;43.898;2023-02-19T09:01:19;99669.91;;;-6.98;60.15
70323;BME280;57735;56.264;43.898;2023-02-19T09:03:50;99672.22;;;-6.91;59.86
70323;BME280;57735;56.264;43.898;2023-02-19T09:06:21;99668.41;;;-6.82;59.68
70323;BME280;57735;56.264;43.898;2023-02-19T09:08:51;99654.25;;;-6.74;59.65
70323;BME280;57735;56.264;43.898;2023-02-19T09:11:25;99666.13;;;-6.70;59.48
70323;BME280;57735;56.264;43.898;2023-02-19T09:13:56;99663.53;;;-6.70;59.47
70323;BME280;57735;56.264;43.898;2023-02-19T09:16:29;99657.59;;;-6.72;59.58
70323;BME280;57735;56.264;43.898;2023-02-19T09:19:00;99664.22;;;-6.64;59.62
70323;BME280;57735;56.264;43.898;2023-02-19T09:21:31;99661.56;;;-6.63;59.20
70323;BME280;57735;56.264;43.898;2023-02-19T09:24:02;99657.09;;;-6.59;59.29
70323;BME280;57735;56.264;43.898;2023-02-19T09:26:32;99645.53;;;-6.52;59.12
70323;BME280;57735;56.264;43.898;2023-02-19T09:29:03;99644.78;;;-6.54;59.12
70323;BME280;57735;56.264;43.898;2023-02-19T09:31:34;99639.84;;;-6.60;59.19
70323;BME280;57735;56.264;43.898;2023-02-19T09:34:05;99640.69;;;-6.60;59.10
70323;BME280;57735;56.264;43.898;2023-02-19T09:36:37;99638.03;;;-6.58;59.19
70323;BME280;57735;56.264;43.898;2023-02-19T09:39:08;99640.50;;;-6.55;59.42
70323;BME280;57735;56.264;43.898;2023-02-19T09:41:45;99636.06;;;-6.53;58.99
70323;BME280;57735;56.264;43.898;2023-02-19T09:44:24;99635.03;;;-6.49;59.06
70323;BME280;57735;56.264;43.898;2023-02-19T09:47:01;99631.00;;;-6.55;59.17
70323;BME280;57735;56.264;43.898;2023-02-19T09:49:44;99633.13;;;-6.44;59.22
70323;BME280;57735;56.264;43.898;2023-02-19T09:52:44;99628.28;;;-6.33;59.18
70323;BME280;57735;56.264;43.898;2023-02-19T09:55:27;99631.28;;;-6.22;58.99
70323;BME280;57735;56.264;43.898;2023-02-19T09:58:02;99628.41;;;-6.16;58.92
70323;BME280;57735;56.264;43.898;2023-02-19T10:00:37;99626.59;;;-6.14;58.40
70323;BME280;57735;56.264;43.898;2023-02-19T10:03:21;99629.38;;;-6.18;58.40
70323;BME280;57735;56.264;43.898;2023-02-19T10:05:53;99622.91;;;-6.28;58.20
70323;BME280;57735;56.264;43.898;2023-02-19T10:08:25;99615.19;;;-6.30;58.63
70323;BME280;57735;56.264;43.898;2023-02-19T10:10:56;99619.34;;;-6.26;58.79
70323;BME280;57735;56.264;43.898;2023-02-19T10:13:39;99620.13;;;-6.24;58.58
70323;BME280;57735;56.264;43.898;2023-02-19T10:16:13;99613.31;;;-6.26;58.54
70323;BME280;57735;56.264;43.898;2023-02-19T10:18:47;99614.44;;;-6.32;58.17
70323;BME280;57735;56.264;43.898;2023-02-19T10:21:20;99616.94;;;-6.30;58.63
70323;BME280;57735;56.264;43.898;2023-02-19T10:23:55;99613.44;;;-6.29;58.94
70323;BME280;57735;56.264;43.898;2023-02-19T10:26:28;99605.53;;;-6.26;58.47
70323;BME280;57735;56.264;43.898;2023-02-19T10:29:04;99618.25;;;-6.20;58.43
70323;BME280;57735;56.264;43.898;2023-02-19T10:31:35;99614.53;;;-6.15;58.67
70323;BME280;57735;56.264;43.898;2023-02-19T10:34:17;99615.66;;;-6.20;58.08
70323;BME280;57735;56.264;43.898;2023-02-19T10:36:49;99610.25;;;-6.16;58.02
70323;BME280;57735;56.264;43.898;2023-02-19T10:41:52;99606.75;;;-6.15;58.47
70323;BME280;57735;56.264;43.898;2023-02-19T10:44:34;99593.78;;;-6.15;58.23
70323;BME280;57735;56.264;43.898;2023-02-19T10:47:18;99593.72;;;-6.13;58.08
70323;BME280;57735;56.264;43.898;2023-02-19T10:49:51;99597.41;;;-6.19;57.96
70323;BME280;57735;56.264;43.898;2023-02-19T10:52:27;99592.16;;;-6.17;58.64
70323;BME280;57735;56.264;43.898;2023-02-19T10:57:51;99589.31;;;-6.11;58.14
70323;BME280;57735;56.264;43.898;2023-02-19T11:00:27;99580.88;;;-6.16;58.04
70323;BME280;57735;56.264;43.898;2023-02-19T11:03:32;99581.22;;;-6.24;58.34
70323;BME280;57735;56.264;43.898;2023-02-19T11:06:04;99570.28;;;-6.30;58.43
70323;BME280;57735;56.264;43.898;2023-02-19T11:08:57;99570.28;;;-6.30;58.85
70323;BME280;57735;56.264;43.898;2023-02-19T11:11:37;99573.06;;;-6.35;58.49
70323;BME280;57735;56.264;43.898;2023-02-19T11:14:16;99567.81;;;-6.34;58.58
70323;BME280;57735;56.264;43.898;2023-02-19T11:16:56;99559.06;;;-6.31;58.44
70323;BME280;57735;56.264;43.898;2023-02-19T11:19:35;99564.97;;;-6.27;58.22
70323;BME280;57735;56.264;43.898;2023-02-19T11:28:01;99552.66;;;-6.22;58.17
70323;BME280;57735;56.264;43.898;2023-02-19T11:30:42;99552.72;;;-6.24;58.25
70323;BME280;57735;56.264;43.898;2023-02-19T11:33:18;99552.28;;;-6.15;58.12
70323;BME280;57735;56.264;43.898;2023-02-19T11:35:54;99556.44;;;-6.11;57.75
70323;BME280;57735;56.264;43.898;2023-02-19T11:38:29;99554.88;;;-6.15;57.84
70323;BME280;57735;56.264;43.898;2023-02-19T11:44:19;99559.78;;;-6.09;57.40
70323;BME280;57735;56.264;43.898;2023-02-19T12:20:05;99561.31;;;-6.62;57.63
70323;BME280;57735;56.264;43.898;2023-02-19T12:31:11;99569.59;;;-7.15;58.11
70323;BME280;57735;56.264;43.898;2023-02-19T12:34:19;99564.09;;;-7.28;58.45
70323;BME280;57735;56.264;43.898;2023-02-19T12:37:26;99566.63;;;-7.48;58.94
70323;BME280;57735;56.264;43.898;2023-02-19T12:45:51;99575.38;;;-7.72;59.15
70323;BME280;57735;56.264;43.898;2023-02-19T12:48:28;99569.47;;;-7.76;59.35
70323;BME280;57735;56.264;43.898;2023-02-19T12:53:46;99586.84;;;-7.80;59.17
70323;BME280;57735;56.264;43.898;2023-02-19T12:56:35;99577.56;;;-7.85;59.31
70323;BME280;57735;56.264;43.898;2023-02-19T13:02:02;99582.59;;;-8.04;59.44
70323;BME280;57735;56.264;43.898;2023-02-19T13:07:12;99583.22;;;-8.21;59.67
70323;BME280;57735;56.264;43.898;2023-02-19T13:12:57;99582.25;;;-8.40;60.08
70323;BME280;57735;56.264;43.898;2023-02-19T13:18:02;99584.41;;;-8.53;60.64
70323;BME280;57735;56.264;43.898;2023-02-19T13:20:37;99583.75;;;-8.58;60.22
70323;BME280;57735;56.264;43.898;2023-02-19T13:23:27;99579.63;;;-8.63;60.77
70323;BME280;57735;56.264;43.898;2023-02-19T13:29:17;99567.91;;;-8.72;60.84
70323;BME280;57735;56.264;43.898;2023-02-19T13:32:08;99580.97;;;-8.76;61.08
70323;BME280;57735;56.264;43.898;2023-02-19T13:37:32;99568.59;;;-8.92;61.41
70323;BME280;57735;56.264;43.898;2023-02-19T13:42:54;99568.97;;;-9.04;61.86
70323;BME280;57735;56.264;43.898;2023-02-19T13:45:37;99570.09;;;-9.11;62.12
70323;BME280;57735;56.264;43.898;2023-02-19T13:48:24;99562.59;;;-9.19;62.29
70323;BME280;57735;56.264;43.898;2023-02-19T13:53:57;99569.72;;;-9.25;62.55
70323;BME280;57735;56.264;43.898;2023-02-19T13:59:23;99571.56;;;-9.29;62.63
70323;BME280;57735;56.264;43.898;2023-02-19T14:14:52;99567.59;;;-9.39;63.49
70323;BME280;57735;56.264;43.898;2023-02-19T14:17:41;99561.63;;;-9.41;63.55
70323;BME280;57735;56.264;43.898;2023-02-19T14:25:44;99571.19;;;-9.44;63.70
70323;BME280;57735;56.264;43.898;2023-02-19T14:28:20;99560.13;;;-9.48;63.67
70323;BME280;57735;56.264;43.898;2023-02-19T14:31:07;99560.19;;;-9.49;63.92
70323;BME280;57735;56.264;43.898;2023-02-19T14:33:43;99557.69;;;-9.53;63.97
70323;BME280;57735;56.264;43.898;2023-02-19T14:39:35;99564.63;;;-9.55;64.08
70323;BME280;57735;56.264;43.898;2023-02-19T14:42:14;99568.13;;;-9.56;64.33
70323;BME280;57735;56.264;43.898;2023-02-19T14:44:59;99562.13;;;-9.56;64.21
70323;BME280;57735;56.264;43.898;2023-02-19T14:47:35;99563.91;;;-9.58;64.30
70323;BME280;57735;56.264;43.898;2023-02-19T14:50:28;99562.22;;;-9.59;64.17
70323;BME280;57735;56.264;43.898;2023-02-19T14:53:04;99560.56;;;-9.62;64.05
70323;BME280;57735;56.264;43.898;2023-02-19T14:55:37;99562.34;;;-9.64;64.31
70323;BME280;57735;56.264;43.898;2023-02-19T14:58:24;99565.88;;;-9.66;64.29
70323;BME280;57735;56.264;43.898;2023-02-19T15:00:55;99568.41;;;-9.65;64.38
70323;BME280;57735;56.264;43.898;2023-02-19T15:03:32;99558.09;;;-9.65;64.15
70323;BME280;57735;56.264;43.898;2023-02-19T15:06:14;99567.56;;;-9.65;64.12
70323;BME280;57735;56.264;43.898;2023-02-19T15:08:50;99564.22;;;-9.69;63.95
70323;BME280;57735;56.264;43.898;2023-02-19T15:11:24;99565.97;;;-9.69;64.03
70323;BME280;57735;56.264;43.898;2023-02-19T15:14:04;99569.50;;;-9.72;64.06
70323;BME280;57735;56.264;43.898;2023-02-19T15:16:36;99571.28;;;-9.74;64.29
70323;BME280;57735;56.264;43.898;2023-02-19T15:19:08;99563.63;;;-9.77;64.26
70323;BME280;57735;56.264;43.898;2023-02-19T15:21:44;99562.88;;;-9.80;64.21
70323;BME280;57735;56.264;43.898;2023-02-19T15:24:17;99566.41;;;-9.83;64.39
70323;BME280;57735;56.264;43.898;2023-02-19T15:26:50;99561.25;;;-9.83;64.37
70323;BME280;57735;56.264;43.898;2023-02-19T15:29:27;99569.78;;;-9.81;64.46
70323;BME280;57735;56.264;43.898;2023-02-19T15:31:59;99562.09;;;-9.82;64.48
70323;BME280;57735;56.264;43.898;2023-02-19T15:34:31;99556.94;;;-9.82;64.61
70323;BME280;57735;56.264;43.898;2023-02-19T15:37:07;99564.75;;;-9.86;64.38
70323;BME280;57735;56.264;43.898;2023-02-19T15:39:44;99563.19;;;-9.90;64.40
70323;BME280;57735;56.264;43.898;2023-02-19T15:42:19;99564.75;;;-9.86;64.31